createdAt,value
2022-12-12T00:00:55.810Z,96212.09
2022-12-12T00:03:26.519Z,96218.78
2022-12-12T00:05:56.311Z,96211.25
2022-12-12T00:08:26.922Z,96215.28
2022-12-12T00:10:56.477Z,96213.53
2022-12-12T00:13:25.573Z,96215.94
2022-12-12T00:15:54.998Z,96212.84
2022-12-12T00:18:24.176Z,96222.16
2022-12-12T00:20:53.886Z,96221.22
2022-12-12T00:23:22.983Z,96213.84
2022-12-12T00:25:57.096Z,96215.75
2022-12-12T00:28:29.736Z,96215.88
2022-12-12T00:30:59.345Z,96215.00
2022-12-12T00:33:28.585Z,96226.81
2022-12-12T00:36:02.740Z,96223.66
2022-12-12T00:38:34.560Z,96223.66
2022-12-12T00:41:05.097Z,96219.31
2022-12-12T00:43:34.700Z,96222.84
2022-12-12T00:46:04.701Z,96220.78
2022-12-12T00:48:33.999Z,96219.38
2022-12-12T00:51:10.077Z,96231.19
2022-12-12T00:53:58.222Z,96232.13
2022-12-12T00:56:34.284Z,96224.13
2022-12-12T00:59:04.596Z,96225.88
2022-12-12T01:01:35.627Z,96221.63
2022-12-12T01:04:05.259Z,96236.59
2022-12-12T01:06:35.668Z,96240.56
2022-12-12T01:09:07.648Z,96236.91
2022-12-12T01:11:38.282Z,96242.75
2022-12-12T01:14:07.993Z,96235.50
2022-12-12T01:16:47.332Z,96239.97
2022-12-12T01:19:21.547Z,96238.31
2022-12-12T01:21:55.352Z,96242.97
2022-12-12T01:24:27.830Z,96254.63
2022-12-12T01:27:02.353Z,96249.47
2022-12-12T01:30:14.242Z,96244.44
2022-12-12T01:32:43.203Z,96242.25
2022-12-12T01:35:12.893Z,96245.69
2022-12-12T01:37:42.241Z,96245.78
2022-12-12T01:40:16.361Z,96244.31
2022-12-12T01:42:47.013Z,96242.06
2022-12-12T01:45:48.850Z,96241.13
2022-12-12T01:48:17.706Z,96246.97
2022-12-12T01:50:46.754Z,96246.75
2022-12-12T01:53:18.105Z,96245.00
2022-12-12T01:55:50.561Z,96250.19
2022-12-12T01:58:21.084Z,96252.31
2022-12-12T02:00:50.707Z,96255.53
2022-12-12T02:03:21.120Z,96245.09
2022-12-12T02:05:54.237Z,96252.09
2022-12-12T02:08:27.070Z,96252.50
2022-12-12T02:10:56.526Z,96255.13
2022-12-12T02:13:31.050Z,96262.00
2022-12-12T02:16:11.861Z,96269.81
2022-12-12T02:18:47.266Z,96268.88
2022-12-12T02:21:20.047Z,96268.88
2022-12-12T02:24:30.104Z,96271.69
2022-12-12T02:27:22.620Z,96271.59
2022-12-12T02:30:22.980Z,96272.81
2022-12-12T02:33:10.183Z,96266.88
2022-12-12T02:35:51.488Z,96269.25
2022-12-12T02:38:28.163Z,96270.38
2022-12-12T02:41:05.679Z,96261.47
2022-12-12T02:43:39.357Z,96274.72
2022-12-12T02:46:13.063Z,96264.41
2022-12-12T02:48:50.107Z,96273.25
2022-12-12T02:51:19.875Z,96269.09
2022-12-12T02:53:49.261Z,96266.41
2022-12-12T02:56:53.582Z,96262.56
2022-12-12T02:59:28.263Z,96266.53
2022-12-12T03:02:24.922Z,96268.78
2022-12-12T03:05:24.564Z,96269.91
2022-12-12T03:08:19.142Z,96270.94
2022-12-12T03:11:07.005Z,96278.38
2022-12-12T03:14:23.421Z,96271.81
2022-12-12T03:17:07.550Z,96275.56
2022-12-12T03:19:44.736Z,96277.72
2022-12-12T03:22:21.206Z,96281.94
2022-12-12T03:24:52.744Z,96285.97
2022-12-12T03:27:24.726Z,96284.91
2022-12-12T03:29:57.609Z,96288.09
2022-12-12T03:32:33.057Z,96289.38
2022-12-12T03:35:05.947Z,96285.25
2022-12-12T03:37:44.354Z,96283.72
2022-12-12T03:40:20.161Z,96285.16
2022-12-12T03:42:52.070Z,96282.59
2022-12-12T03:45:26.324Z,96278.81
2022-12-12T03:47:58.557Z,96282.19
2022-12-12T03:50:30.375Z,96281.22
2022-12-12T03:53:04.329Z,96289.19
2022-12-12T03:55:38.591Z,96280.13
2022-12-12T03:58:12.148Z,96286.78
2022-12-12T04:00:42.777Z,96270.75
2022-12-12T04:03:16.995Z,96281.28
2022-12-12T04:06:07.994Z,96281.50
2022-12-12T04:08:39.867Z,96285.28
2022-12-12T04:11:36.716Z,96285.97
2022-12-12T04:14:11.323Z,96279.31
2022-12-12T04:16:43.545Z,96288.94
2022-12-12T04:19:36.302Z,96282.03
2022-12-12T04:22:23.340Z,96281.25
2022-12-12T04:25:01.692Z,96292.47
2022-12-12T04:27:33.246Z,96287.44
2022-12-12T04:30:05.731Z,96287.88
2022-12-12T04:32:47.518Z,96292.84
2022-12-12T04:35:19.278Z,96288.72
2022-12-12T04:37:52.365Z,96296.13
2022-12-12T04:40:28.118Z,96287.94
2022-12-12T04:43:03.768Z,96291.25
2022-12-12T04:45:35.641Z,96289.00
2022-12-12T04:48:06.468Z,96290.00
2022-12-12T04:50:45.751Z,96288.31
2022-12-12T04:53:18.818Z,96294.56
2022-12-12T04:55:55.260Z,96290.47
2022-12-12T04:58:24.974Z,96294.72
2022-12-12T05:00:57.477Z,96287.97
2022-12-12T05:03:31.870Z,96287.53
2022-12-12T05:06:03.331Z,96284.09
2022-12-12T05:08:34.157Z,96289.94
2022-12-12T05:11:06.777Z,96279.75
2022-12-12T05:13:39.518Z,96301.13
2022-12-12T05:16:16.534Z,96302.75
2022-12-12T05:18:55.014Z,96302.31
2022-12-12T05:21:23.881Z,96301.50
2022-12-12T05:23:53.177Z,96304.34
2022-12-12T05:26:32.961Z,96311.75
2022-12-12T05:29:06.999Z,96314.63
2022-12-12T05:31:36.947Z,96309.25
2022-12-12T05:34:06.597Z,96310.38
2022-12-12T05:36:35.594Z,96312.50
2022-12-12T05:39:05.200Z,96320.66
2022-12-12T05:41:36.446Z,96307.66
2022-12-12T05:44:16.026Z,96315.84
2022-12-12T05:46:44.963Z,96322.72
2022-12-12T05:49:13.973Z,96326.97
2022-12-12T05:51:42.867Z,96328.91
2022-12-12T05:54:11.973Z,96333.56
2022-12-12T05:56:42.696Z,96330.25
2022-12-12T05:59:12.099Z,96330.25
2022-12-12T06:01:41.398Z,96333.59
2022-12-12T06:04:10.595Z,96329.25
2022-12-12T06:06:40.106Z,96334.06
2022-12-12T06:09:09.201Z,96327.41
2022-12-12T06:11:38.403Z,96334.16
2022-12-12T06:14:09.427Z,96327.16
2022-12-12T06:16:38.748Z,96335.88
2022-12-12T06:19:07.840Z,96329.81
2022-12-12T06:21:37.346Z,96327.66
2022-12-12T06:24:09.876Z,96328.22
2022-12-12T06:26:39.295Z,96329.16
2022-12-12T06:29:14.997Z,96335.81
2022-12-12T06:31:47.644Z,96332.94
2022-12-12T06:34:17.267Z,96332.94
2022-12-12T06:36:46.569Z,96339.00
2022-12-12T06:39:15.772Z,96344.84
2022-12-12T06:41:47.732Z,96337.53
2022-12-12T06:44:21.641Z,96344.72
2022-12-12T06:46:51.149Z,96343.13
2022-12-12T06:49:22.098Z,96344.03
2022-12-12T06:51:51.083Z,96348.38
2022-12-12T06:54:20.448Z,96355.81
2022-12-12T06:56:52.243Z,96356.03
2022-12-12T06:59:22.827Z,96363.34
2022-12-12T07:01:56.504Z,96364.03
2022-12-12T07:04:26.393Z,96375.69
2022-12-12T07:06:55.447Z,96376.28
2022-12-12T07:09:24.328Z,96389.09
2022-12-12T07:11:53.376Z,96393.19
2022-12-12T07:14:24.030Z,96384.88
2022-12-12T07:16:53.719Z,96390.47
2022-12-12T07:19:24.045Z,96390.22
2022-12-12T07:22:05.731Z,96389.31
2022-12-12T07:24:38.422Z,96393.19
2022-12-12T07:27:10.744Z,96401.34
2022-12-12T07:29:41.424Z,96398.44
2022-12-12T07:32:10.723Z,96398.81
2022-12-12T07:34:40.238Z,96395.81
2022-12-12T07:37:25.198Z,96396.06
2022-12-12T07:39:54.366Z,96401.19
2022-12-12T07:42:23.907Z,96409.66
2022-12-12T07:44:54.936Z,96405.91
2022-12-12T07:47:27.479Z,96408.66
2022-12-12T07:49:56.737Z,96411.16
2022-12-12T07:52:26.330Z,96410.38
2022-12-12T07:54:55.634Z,96415.50
2022-12-12T07:57:24.811Z,96410.81
2022-12-12T07:59:55.156Z,96424.44
2022-12-12T08:02:24.663Z,96422.94
2022-12-12T08:04:53.851Z,96424.44
2022-12-12T08:07:23.060Z,96435.53
2022-12-12T08:09:52.976Z,96434.63
2022-12-12T08:12:30.558Z,96450.59
2022-12-12T08:15:01.401Z,96445.47
2022-12-12T08:17:30.504Z,96448.53
2022-12-12T08:20:00.010Z,96446.56
2022-12-12T08:22:32.591Z,96451.94
2022-12-12T08:25:01.787Z,96451.22
2022-12-12T08:27:41.534Z,96451.63
2022-12-12T08:30:12.576Z,96458.28
2022-12-12T08:32:41.980Z,96455.09
2022-12-12T08:35:11.604Z,96458.53
2022-12-12T08:37:41.285Z,96466.75
2022-12-12T08:40:11.831Z,96463.22
2022-12-12T08:42:40.806Z,96451.31
2022-12-12T08:45:12.542Z,96463.91
2022-12-12T08:47:41.577Z,96464.34
2022-12-12T08:50:12.415Z,96464.81
2022-12-12T08:52:48.576Z,96458.16
2022-12-12T08:55:18.496Z,96457.03
2022-12-12T08:57:52.640Z,96463.41
2022-12-12T09:00:24.062Z,96465.03
2022-12-12T09:03:18.243Z,96471.47
2022-12-12T09:05:51.440Z,96474.53
2022-12-12T09:08:20.672Z,96472.72
2022-12-12T09:10:51.573Z,96477.38
2022-12-12T09:13:21.300Z,96484.03
2022-12-12T09:15:54.048Z,96483.44
2022-12-12T09:18:23.675Z,96492.94
2022-12-12T09:20:54.103Z,96492.50
2022-12-12T09:23:24.434Z,96491.25
2022-12-12T09:25:53.835Z,96491.59
2022-12-12T09:28:25.469Z,96495.47
2022-12-12T09:30:56.223Z,96497.09
2022-12-12T09:33:26.016Z,96490.44
2022-12-12T09:36:00.461Z,96497.66
2022-12-12T09:38:29.658Z,96499.41
2022-12-12T09:41:00.291Z,96497.53
2022-12-12T09:43:34.316Z,96496.16
2022-12-12T09:46:12.187Z,96492.97
2022-12-12T09:48:44.582Z,96496.03
2022-12-12T09:51:14.597Z,96490.19
2022-12-12T09:53:45.739Z,96495.69
2022-12-12T09:56:19.838Z,96489.81
2022-12-12T09:58:57.004Z,96489.03
2022-12-12T10:01:54.423Z,96494.00
2022-12-12T10:04:30.053Z,96495.56
2022-12-12T10:07:01.706Z,96500.81
2022-12-12T10:09:44.012Z,96503.22
2022-12-12T10:12:15.823Z,96492.91
2022-12-12T10:14:48.499Z,96495.41
2022-12-12T10:17:22.013Z,96502.28
2022-12-12T10:19:53.817Z,96496.91
2022-12-12T10:22:33.868Z,96491.41
2022-12-12T10:25:23.137Z,96494.47
2022-12-12T10:27:53.571Z,96499.22
2022-12-12T10:30:23.175Z,96495.31
2022-12-12T10:33:17.868Z,96501.34
2022-12-12T10:35:54.147Z,96500.44
2022-12-12T10:38:32.445Z,96495.94
2022-12-12T10:41:10.656Z,96499.31
2022-12-12T10:43:44.638Z,96491.88
2022-12-12T10:46:28.572Z,96483.94
2022-12-12T10:49:00.066Z,96489.22
2022-12-12T10:51:30.701Z,96480.41
2022-12-12T10:54:00.304Z,96484.16
2022-12-12T10:56:30.325Z,96479.09
2022-12-12T10:59:02.698Z,96489.44
2022-12-12T11:02:07.616Z,96484.44
2022-12-12T11:04:24.857Z,96480.69
2022-12-12T11:06:55.283Z,96481.84
2022-12-12T11:09:26.833Z,96486.16
2022-12-12T11:12:00.392Z,96481.94
2022-12-12T11:14:33.623Z,96487.09
2022-12-12T11:17:02.833Z,96485.88
2022-12-12T11:19:40.070Z,96490.16
2022-12-12T11:22:11.958Z,96486.63
2022-12-12T11:24:42.624Z,96484.63
2022-12-12T11:27:22.054Z,96488.97
2022-12-12T11:29:52.166Z,96491.59
2022-12-12T11:32:22.492Z,96483.69
2022-12-12T11:34:55.889Z,96488.47
2022-12-12T11:37:28.030Z,96484.22
2022-12-12T11:39:58.184Z,96484.22
2022-12-12T11:42:29.838Z,96484.34
2022-12-12T11:45:02.515Z,96480.75
2022-12-12T11:47:38.790Z,96470.00
2022-12-12T11:50:21.842Z,96480.41
2022-12-12T11:52:51.821Z,96480.81
2022-12-12T11:55:28.602Z,96479.25
2022-12-12T11:58:08.757Z,96475.56
2022-12-12T12:00:45.106Z,96483.19
2022-12-12T12:03:23.517Z,96480.72
2022-12-12T12:06:03.494Z,96476.09
2022-12-12T12:08:42.662Z,96478.50
2022-12-12T12:11:18.576Z,96490.16
2022-12-12T12:14:07.235Z,96486.72
2022-12-12T12:16:45.259Z,96474.34
2022-12-12T12:19:20.891Z,96481.31
2022-12-12T12:22:01.147Z,96477.63
2022-12-12T12:25:09.193Z,96464.50
2022-12-12T12:27:43.471Z,96468.34
2022-12-12T12:30:23.835Z,96474.66
2022-12-12T12:33:17.763Z,96471.03
2022-12-12T12:35:57.767Z,96469.88
2022-12-12T12:38:41.610Z,96473.31
2022-12-12T12:41:23.609Z,96471.53
2022-12-12T12:44:05.386Z,96465.00
2022-12-12T12:46:41.358Z,96465.22
2022-12-12T12:49:17.317Z,96462.59
2022-12-12T12:51:50.615Z,96461.94
2022-12-12T12:54:26.465Z,96469.78
2022-12-12T12:56:58.839Z,96464.03
2022-12-12T12:59:32.732Z,96471.78
2022-12-12T13:02:05.123Z,96469.47
2022-12-12T13:04:41.776Z,96473.94
2022-12-12T13:07:20.886Z,96476.19
2022-12-12T13:09:55.353Z,96478.66
2022-12-12T13:12:49.604Z,96470.91
2022-12-12T13:15:28.652Z,96479.16
2022-12-12T13:18:05.045Z,96484.16
2022-12-12T13:20:36.178Z,96478.72
2022-12-12T13:23:19.205Z,96489.34
2022-12-12T13:26:04.948Z,96489.91
2022-12-12T13:28:37.670Z,96477.47
2022-12-12T13:31:26.443Z,96487.72
2022-12-12T13:33:57.172Z,96485.44
2022-12-12T13:36:30.507Z,96489.06
2022-12-12T13:39:02.630Z,96486.63
2022-12-12T13:42:03.879Z,96481.13
2022-12-12T13:44:58.095Z,96481.13
2022-12-12T13:48:01.294Z,96492.34
2022-12-12T13:50:30.660Z,96494.06
2022-12-12T13:53:23.924Z,96493.78
2022-12-12T13:56:34.503Z,96499.19
2022-12-12T13:59:05.535Z,96493.25
2022-12-12T14:01:40.592Z,96497.25
2022-12-12T14:04:25.748Z,96493.59
2022-12-12T14:07:03.649Z,96491.34
2022-12-12T14:09:47.712Z,96500.16
2022-12-12T14:12:31.169Z,96498.09
2022-12-12T14:15:05.754Z,96503.34
2022-12-12T14:17:43.254Z,96500.72
2022-12-12T14:20:29.650Z,96494.56
2022-12-12T14:23:25.078Z,96493.44
2022-12-12T14:25:54.568Z,96491.13
2022-12-12T14:28:25.406Z,96493.91
2022-12-12T14:31:35.520Z,96490.09
2022-12-12T14:34:24.635Z,96489.06
2022-12-12T14:37:30.265Z,96490.75
2022-12-12T14:40:02.883Z,96499.34
2022-12-12T14:43:15.586Z,96502.53
2022-12-12T14:45:36.084Z,96497.06
2022-12-12T14:48:26.474Z,96495.38
2022-12-12T14:51:02.229Z,96489.53
2022-12-12T14:53:35.009Z,96490.03
2022-12-12T14:56:10.455Z,96495.94
2022-12-12T14:58:42.027Z,96499.94
2022-12-12T15:01:11.423Z,96498.03
2022-12-12T15:03:45.350Z,96497.81
2022-12-12T15:06:31.312Z,96493.97
2022-12-12T15:09:17.806Z,96497.63
2022-12-12T15:11:48.763Z,96495.84
2022-12-12T15:14:25.837Z,96493.78
2022-12-12T15:17:02.914Z,96493.63
2022-12-12T15:19:46.665Z,96500.25
2022-12-12T15:22:25.699Z,96499.22
2022-12-12T15:24:55.568Z,96492.69
2022-12-12T15:27:56.718Z,96500.25
2022-12-12T15:30:33.861Z,96495.22
2022-12-12T15:33:03.688Z,96502.44
2022-12-12T15:35:34.497Z,96507.22
2022-12-12T15:38:06.663Z,96505.53
2022-12-12T15:40:37.703Z,96507.22
2022-12-12T15:43:08.954Z,96497.41
2022-12-12T15:45:42.143Z,96499.50
2022-12-12T15:48:16.162Z,96484.81
2022-12-12T15:50:58.207Z,96488.34
2022-12-12T15:53:29.285Z,96477.03
2022-12-12T15:56:04.131Z,96473.84
2022-12-12T15:58:36.400Z,96470.06
2022-12-12T16:01:20.511Z,96471.78
2022-12-12T16:03:59.792Z,96478.19
2022-12-12T16:06:38.540Z,96477.63
2022-12-12T16:09:32.281Z,96476.25
2022-12-12T16:12:03.325Z,96480.72
2022-12-12T16:14:41.166Z,96484.94
2022-12-12T16:17:13.809Z,96483.13
2022-12-12T16:19:45.625Z,96489.53
2022-12-12T16:22:30.429Z,96481.63
2022-12-12T16:25:13.027Z,96477.38
2022-12-12T16:27:42.632Z,96478.88
2022-12-12T16:30:14.733Z,96484.25
2022-12-12T16:32:52.004Z,96487.31
2022-12-12T16:35:23.470Z,96486.94
2022-12-12T16:37:54.505Z,96494.72
2022-12-12T16:40:48.786Z,96496.91
2022-12-12T16:43:19.655Z,96507.28
2022-12-12T16:45:50.702Z,96498.06
2022-12-12T16:48:36.056Z,96517.38
2022-12-12T16:51:17.736Z,96515.28
2022-12-12T16:53:51.235Z,96518.69
2022-12-12T16:56:22.482Z,96525.72
2022-12-12T16:58:53.561Z,96529.94
2022-12-12T17:01:26.054Z,96530.91
2022-12-12T17:04:06.188Z,96524.28
2022-12-12T17:06:40.468Z,96524.50
2022-12-12T17:12:19.624Z,96525.53
2022-12-12T17:14:58.665Z,96528.44
2022-12-12T17:17:31.442Z,96524.66
2022-12-12T17:20:03.613Z,96525.66
2022-12-12T17:22:38.446Z,96520.78
2022-12-12T17:25:25.464Z,96531.38
2022-12-12T17:27:57.729Z,96531.81
2022-12-12T17:30:58.567Z,96537.06
2022-12-12T17:33:31.259Z,96533.91
2022-12-12T17:36:26.253Z,96525.22
2022-12-12T17:39:24.931Z,96536.88
2022-12-12T17:42:08.576Z,96538.38
2022-12-12T17:45:01.333Z,96548.66
2022-12-12T17:47:33.296Z,96548.34
2022-12-12T17:50:20.109Z,96537.22
2022-12-12T17:52:57.703Z,96549.28
2022-12-12T17:55:54.445Z,96552.06
2022-12-12T17:58:29.449Z,96546.63
2022-12-12T18:01:04.952Z,96555.78
2022-12-12T18:03:43.552Z,96556.72
2022-12-12T18:06:21.861Z,96545.06
2022-12-12T18:08:55.155Z,96542.66
2022-12-12T18:11:45.996Z,96539.66
2022-12-12T18:14:49.365Z,96542.56
2022-12-12T18:17:18.956Z,96537.09
2022-12-12T18:19:53.291Z,96538.53
2022-12-12T18:22:22.388Z,96534.03
2022-12-12T18:24:52.207Z,96530.78
2022-12-12T18:27:38.197Z,96536.41
2022-12-12T18:30:10.773Z,96539.88
2022-12-12T18:33:08.846Z,96544.88
2022-12-12T18:35:44.191Z,96540.59
2022-12-12T18:38:17.077Z,96535.59
2022-12-12T18:40:54.162Z,96539.22
2022-12-12T18:43:24.465Z,96550.38
2022-12-12T18:45:55.815Z,96551.16
2022-12-12T18:48:26.573Z,96552.09
2022-12-12T18:51:06.415Z,96548.44
2022-12-12T18:53:37.256Z,96547.22
2022-12-12T18:56:13.714Z,96550.66
2022-12-12T18:58:45.074Z,96552.88
2022-12-12T19:01:34.625Z,96547.72
2022-12-12T19:04:22.445Z,96544.28
2022-12-12T19:07:01.720Z,96543.66
2022-12-12T19:10:01.068Z,96541.22
2022-12-12T19:12:30.739Z,96542.06
2022-12-12T19:15:16.683Z,96543.31
2022-12-12T19:17:52.277Z,96533.22
2022-12-12T19:20:37.471Z,96547.13
2022-12-12T19:23:10.233Z,96543.91
2022-12-12T19:25:42.939Z,96546.16
2022-12-12T19:28:22.353Z,96545.69
2022-12-12T19:31:15.117Z,96550.16
2022-12-12T19:34:07.939Z,96553.78
2022-12-12T19:36:38.288Z,96548.22
2022-12-12T19:39:24.375Z,96548.22
2022-12-12T19:42:07.808Z,96551.44
2022-12-12T19:44:43.543Z,96548.19
2022-12-12T19:47:16.960Z,96551.06
2022-12-12T19:49:55.889Z,96555.09
2022-12-12T19:53:05.004Z,96555.94
2022-12-12T19:55:48.147Z,96543.81
2022-12-12T19:58:27.525Z,96547.47
2022-12-12T20:01:06.663Z,96546.88
2022-12-12T20:03:39.704Z,96543.13
2022-12-12T20:06:16.790Z,96544.88
2022-12-12T20:08:56.435Z,96540.69
2022-12-12T20:11:49.382Z,96536.75
2022-12-12T20:14:21.762Z,96546.09
2022-12-12T20:17:20.046Z,96549.31
2022-12-12T20:19:57.023Z,96549.69
2022-12-12T20:22:48.752Z,96552.09
2022-12-12T20:25:26.345Z,96546.88
2022-12-12T20:27:59.104Z,96543.25
2022-12-12T20:30:40.568Z,96540.81
2022-12-12T20:33:25.891Z,96543.41
2022-12-12T20:36:17.815Z,96539.78
2022-12-12T20:38:55.728Z,96540.81
2022-12-12T20:41:48.791Z,96544.22
2022-12-12T20:44:48.300Z,96544.41
2022-12-12T20:50:42.456Z,96534.19
2022-12-12T20:53:36.440Z,96539.63
2022-12-12T21:03:02.607Z,96538.50
2022-12-12T21:06:10.156Z,96539.31
2022-12-12T21:08:43.345Z,96532.84
2022-12-12T21:11:48.065Z,96534.44
2022-12-12T21:14:23.934Z,96540.47
2022-12-12T21:17:05.498Z,96532.03
2022-12-12T21:19:40.460Z,96534.44
2022-12-12T21:22:12.728Z,96529.00
2022-12-12T21:24:52.784Z,96523.78
2022-12-12T21:27:38.774Z,96528.41
2022-12-12T21:30:22.002Z,96528.41
2022-12-12T21:33:04.184Z,96524.16
2022-12-12T21:36:10.558Z,96523.56
2022-12-12T21:38:43.741Z,96535.25
2022-12-12T21:41:30.992Z,96521.56
2022-12-12T21:44:32.342Z,96525.44
2022-12-12T21:47:43.071Z,96531.28
2022-12-12T21:50:18.971Z,96529.66
2022-12-12T21:56:25.055Z,96521.63
2022-12-12T21:59:16.889Z,96527.25
2022-12-12T22:04:57.375Z,96518.41
2022-12-12T22:07:28.180Z,96523.44
2022-12-12T22:10:14.213Z,96521.41
2022-12-12T22:12:57.421Z,96522.63
2022-12-12T22:15:32.975Z,96512.81
2022-12-12T22:21:15.814Z,96515.25
2022-12-12T22:23:54.743Z,96517.69
2022-12-12T22:27:05.516Z,96520.91
2022-12-12T22:30:14.548Z,96524.16
2022-12-12T22:33:11.397Z,96512.09
2022-12-12T22:35:54.319Z,96517.72
2022-12-12T22:38:25.241Z,96509.88
2022-12-12T22:41:39.402Z,96508.09
2022-12-12T22:44:31.138Z,96512.13
2022-12-12T22:47:25.629Z,96506.88
2022-12-12T22:50:26.463Z,96512.13
2022-12-12T22:53:20.654Z,96502.84
2022-12-12T22:56:14.537Z,96505.88
2022-12-12T22:59:11.482Z,96504.66
2022-12-12T23:01:51.331Z,96500.84
2022-12-12T23:04:28.650Z,96506.28
2022-12-12T23:06:59.559Z,96503.66
2022-12-12T23:09:58.760Z,96497.03
2022-12-12T23:21:00.787Z,96488.38
2022-12-12T23:24:31.736Z,96486.38
2022-12-12T23:28:40.467Z,96492.41
2022-12-12T23:31:46.049Z,96494.41
2022-12-12T23:34:17.691Z,96496.03
2022-12-12T23:36:45.897Z,96488.97
2022-12-12T23:39:14.830Z,96485.19
2022-12-12T23:41:43.459Z,96491.22
2022-12-12T23:44:14.198Z,96491.59
2022-12-12T23:46:42.768Z,96492.41
2022-12-12T23:49:15.592Z,96492.00
2022-12-12T23:51:45.114Z,96482.75
2022-12-12T23:54:15.543Z,96490.78
2022-12-12T23:56:43.675Z,96485.19
2022-12-12T23:59:17.339Z,96483.38
